Buffalo, New York
Current Conditions -  °F | °C
As of 5:54 AM on Friday 24 Oct 2014 (Local Time) from KBUF Reporting Station
Few Clouds Few Clouds  
Wind Chill: 37°   Ceiling: Unl
Heat Index: 40°   Visibility: 8mi
Dew Point: 37°   Wind: 5mph
Humidity: 89%   Direction: 200°SSW
Pressure: 30.03"   Gusts: NA
Location:  42.89°N, 78.88°W
Report Text: KBUF 240954Z 20004KT 8SM FEW250 04/03 A3003 RMK AO2 SLP173 T00440028
Loading
Personal Weather Stations






























Interactive Weather Map
Tropical Storm Tracking
New forecast layout! Learn more

10-Day Weather Forecast

Advertisements
Track Severe Weather on mobile